createdAt,value
2023-04-10T00:00:09.030Z,33.40
2023-04-10T00:06:11.656Z,32.70
2023-04-10T00:12:15.137Z,30.40
2023-04-10T00:18:18.122Z,35.85
2023-04-10T00:24:20.627Z,29.45
2023-04-10T00:30:23.119Z,32.60
2023-04-10T00:36:25.572Z,32.22
2023-04-10T00:42:28.341Z,32.45
2023-04-10T00:48:30.926Z,35.28
2023-04-10T00:54:34.997Z,34.20
2023-04-10T01:00:37.644Z,31.75
2023-04-10T01:06:58.640Z,33.60
2023-04-10T01:13:24.406Z,31.48
2023-04-10T01:19:46.640Z,31.90
2023-04-10T01:26:00.311Z,34.15
2023-04-10T01:32:08.837Z,30.80
2023-04-10T01:38:12.327Z,35.55
2023-04-10T01:44:16.579Z,35.65
2023-04-10T01:50:20.605Z,35.72
2023-04-10T01:56:23.931Z,34.92
2023-04-10T02:02:26.502Z,37.33
2023-04-10T02:08:53.980Z,31.65
2023-04-10T02:14:57.716Z,32.92
2023-04-10T02:21:01.509Z,34.20
2023-04-10T02:27:04.130Z,30.92
2023-04-10T02:33:06.761Z,32.17
2023-04-10T02:39:09.543Z,31.45
2023-04-10T02:45:21.518Z,36.05
2023-04-10T02:51:24.620Z,30.65
2023-04-10T02:57:29.213Z,30.98
2023-04-10T03:03:32.007Z,28.27
2023-04-10T03:09:34.738Z,29.27
2023-04-10T03:21:40.001Z,29.23
2023-04-10T03:27:42.580Z,39.28
2023-04-10T03:39:47.304Z,34.67
2023-04-10T03:45:50.063Z,32.88
2023-04-10T03:57:55.419Z,32.38
2023-04-10T04:04:00.143Z,32.60
2023-04-10T04:10:21.820Z,38.13
2023-04-10T04:16:36.810Z,38.67
2023-04-10T04:22:57.560Z,33.13
2023-04-10T04:29:18.594Z,38.50
2023-04-10T04:35:39.429Z,37.10
2023-04-10T04:41:54.997Z,39.38
2023-04-10T04:48:17.442Z,37.58
2023-04-10T04:54:40.025Z,33.27
2023-04-10T05:01:09.585Z,36.45
2023-04-10T05:07:44.565Z,36.83
2023-04-10T05:14:10.132Z,47.63
2023-04-10T05:20:27.768Z,42.60
2023-04-10T05:26:48.498Z,36.00
2023-04-10T05:33:21.041Z,45.35
2023-04-10T05:39:40.962Z,37.67
2023-04-10T05:46:15.705Z,36.17
2023-04-10T05:52:38.495Z,41.47
2023-04-10T05:59:07.038Z,39.22
2023-04-10T06:05:38.975Z,40.85
2023-04-10T06:11:43.373Z,35.38
2023-04-10T06:23:48.829Z,30.42
2023-04-10T06:35:57.995Z,34.55
2023-04-10T06:42:01.864Z,29.27
2023-04-10T06:48:16.634Z,24.63
2023-04-10T06:54:19.197Z,25.67
2023-04-10T07:00:21.738Z,26.13
2023-04-10T07:06:24.539Z,26.75
2023-04-10T07:12:27.411Z,25.10
2023-04-10T07:18:30.093Z,28.25
2023-04-10T07:24:33.252Z,23.88
2023-04-10T07:30:35.643Z,25.60
2023-04-10T07:36:38.257Z,25.90
2023-04-10T07:42:40.500Z,30.58
2023-04-10T07:48:42.929Z,27.25
2023-04-10T07:54:45.335Z,27.40
2023-04-10T08:00:47.641Z,35.97
2023-04-10T08:06:53.494Z,25.38
2023-04-10T08:12:56.064Z,26.35
2023-04-10T08:18:59.245Z,27.02
2023-04-10T08:25:01.619Z,25.15
2023-04-10T08:31:04.324Z,25.65
2023-04-10T08:37:09.175Z,30.30
2023-04-10T08:43:12.910Z,22.85
2023-04-10T08:49:22.425Z,27.42
2023-04-10T08:55:24.887Z,18.38
2023-04-10T09:01:27.488Z,22.52
2023-04-10T09:07:30.152Z,18.73
2023-04-10T09:13:37.835Z,23.25
2023-04-10T09:19:40.495Z,20.50
2023-04-10T09:25:43.185Z,14.13
2023-04-10T09:31:46.199Z,19.27
2023-04-10T09:37:49.236Z,18.75
2023-04-10T09:44:10.351Z,14.70
2023-04-10T09:50:12.835Z,12.02
2023-04-10T09:56:15.799Z,17.77
2023-04-10T10:02:20.204Z,17.35
2023-04-10T10:08:23.225Z,14.45
2023-04-10T10:14:29.377Z,14.75
2023-04-10T10:20:36.565Z,14.85
2023-04-10T10:26:44.188Z,13.18
2023-04-10T10:32:48.291Z,14.20
2023-04-10T10:39:13.601Z,11.43
2023-04-10T10:45:19.721Z,16.45
2023-04-10T10:51:22.285Z,19.92
2023-04-10T10:57:53.819Z,11.65
2023-04-10T11:03:56.613Z,14.32
2023-04-10T11:09:59.439Z,11.02
2023-04-10T11:16:08.207Z,9.02
2023-04-10T11:22:11.048Z,11.65
2023-04-10T11:28:38.465Z,12.40
2023-04-10T11:34:45.446Z,10.63
2023-04-10T11:40:55.583Z,8.82
2023-04-10T11:46:59.099Z,12.25
2023-04-10T11:53:01.898Z,10.88
2023-04-10T11:59:08.242Z,11.32
2023-04-10T12:05:11.082Z,10.45
2023-04-10T12:11:14.455Z,13.45
2023-04-10T12:17:17.650Z,16.95
2023-04-10T12:23:20.803Z,11.48
2023-04-10T12:29:28.379Z,16.10
2023-04-10T12:35:40.935Z,12.30
2023-04-10T12:47:47.612Z,9.33
2023-04-10T12:53:50.101Z,12.63
2023-04-10T12:59:53.858Z,12.90
2023-04-10T13:05:56.701Z,13.18
2023-04-10T13:11:59.388Z,9.20
2023-04-10T13:18:04.315Z,13.95
2023-04-10T13:24:08.449Z,11.55
2023-04-10T13:30:11.130Z,13.90
2023-04-10T13:36:14.179Z,12.90
2023-04-10T13:42:18.985Z,10.98
2023-04-10T13:48:24.525Z,12.40
2023-04-10T13:54:29.832Z,14.00
2023-04-10T14:00:32.127Z,26.08
2023-04-10T14:06:35.158Z,13.13
2023-04-10T14:12:38.052Z,14.98
2023-04-10T14:18:40.746Z,11.82
2023-04-10T14:24:43.197Z,11.27
2023-04-10T14:30:50.181Z,11.32
2023-04-10T14:36:56.437Z,16.38
2023-04-10T14:42:59.213Z,16.27
2023-04-10T14:49:01.867Z,14.05
2023-04-10T14:55:04.833Z,15.05
2023-04-10T15:01:12.119Z,14.93
2023-04-10T15:07:14.807Z,12.02
2023-04-10T15:13:17.491Z,11.85
2023-04-10T15:19:20.398Z,14.77
2023-04-10T15:31:25.217Z,10.80
2023-04-10T15:37:27.577Z,12.88
2023-04-10T15:43:29.882Z,10.40
2023-04-10T15:49:37.611Z,14.10
2023-04-10T15:55:41.443Z,14.30
2023-04-10T16:01:44.108Z,17.70
2023-04-10T16:13:49.931Z,15.85
2023-04-10T16:19:52.866Z,13.77
2023-04-10T16:25:55.443Z,17.35
2023-04-10T16:31:57.923Z,13.65
2023-04-10T16:38:00.774Z,17.15
2023-04-10T16:44:03.728Z,18.95
2023-04-10T16:50:06.672Z,25.55
2023-04-10T16:56:09.244Z,18.60
2023-04-10T17:02:11.914Z,26.30
2023-04-10T17:14:17.385Z,23.98
2023-04-10T17:20:19.928Z,38.33
2023-04-10T17:26:23.570Z,33.67
2023-04-10T17:32:26.476Z,31.58
2023-04-10T17:38:28.862Z,29.08
2023-04-10T17:44:31.880Z,28.30
2023-04-10T17:50:34.579Z,47.17
2023-04-10T18:02:39.968Z,24.40
2023-04-10T18:08:42.719Z,23.27
2023-04-10T18:20:48.594Z,32.03
2023-04-10T18:26:50.819Z,26.00
2023-04-10T18:32:53.466Z,41.00
2023-04-10T18:38:56.504Z,45.83
2023-04-10T18:44:59.376Z,37.97
2023-04-10T18:51:01.995Z,35.65
2023-04-10T18:57:04.632Z,34.03
2023-04-10T19:03:07.434Z,26.15
2023-04-10T19:09:09.822Z,28.02
2023-04-10T19:15:13.998Z,31.30
2023-04-10T19:21:16.577Z,24.67
2023-04-10T19:27:19.135Z,26.38
2023-04-10T19:33:21.883Z,30.00
2023-04-10T19:45:29.840Z,29.10
2023-04-10T19:51:32.663Z,26.60
2023-04-10T20:03:38.250Z,26.45
2023-04-10T20:09:40.714Z,22.83
2023-04-10T20:15:44.113Z,33.83
2023-04-10T20:21:47.146Z,29.90
2023-04-10T20:33:51.728Z,28.63
2023-04-10T20:39:53.841Z,24.13
2023-04-10T20:45:56.656Z,26.97
2023-04-10T20:58:01.901Z,29.42
2023-04-10T21:04:04.510Z,25.88
2023-04-10T21:10:07.418Z,30.67
2023-04-10T21:16:10.216Z,33.83
2023-04-10T21:22:12.652Z,28.20
2023-04-10T21:28:15.343Z,26.17
2023-04-10T21:40:20.324Z,28.55
2023-04-10T21:46:23.116Z,29.85
2023-04-10T21:58:28.004Z,33.92
2023-04-10T22:04:30.864Z,29.98
2023-04-10T22:10:34.950Z,28.00
2023-04-10T22:16:37.458Z,27.77
2023-04-10T22:22:39.977Z,35.10
2023-04-10T22:28:42.548Z,28.08
2023-04-10T22:34:45.114Z,25.45
2023-04-10T22:40:47.381Z,32.55
2023-04-10T22:46:49.955Z,27.73
2023-04-10T22:52:52.237Z,26.33
2023-04-10T22:58:54.964Z,25.70
2023-04-10T23:04:58.157Z,29.08
2023-04-10T23:11:00.575Z,34.42
2023-04-10T23:17:02.998Z,31.67
2023-04-10T23:23:05.314Z,28.27
2023-04-10T23:29:07.984Z,29.17
2023-04-10T23:35:10.522Z,28.52
2023-04-10T23:41:13.008Z,33.92
2023-04-10T23:47:15.319Z,26.83
2023-04-10T23:53:18.000Z,31.67
2023-04-10T23:59:20.460Z,27.95
